createdAt,value
2024-03-02T00:02:00.591Z,10.79
2024-03-02T00:05:03.897Z,10.80
2024-03-02T00:08:08.968Z,10.81
2024-03-02T00:11:15.305Z,10.80
2024-03-02T00:14:18.165Z,10.81
2024-03-02T00:17:27.138Z,10.84
2024-03-02T00:20:30.272Z,10.86
2024-03-02T00:23:36.301Z,10.83
2024-03-02T00:26:39.042Z,10.73
2024-03-02T00:29:43.920Z,10.84
2024-03-02T00:32:46.560Z,10.88
2024-03-02T00:35:50.471Z,10.87
2024-03-02T00:38:55.324Z,10.83
2024-03-02T00:41:58.233Z,10.71
2024-03-02T00:45:00.815Z,10.79
2024-03-02T00:48:05.969Z,10.66
2024-03-02T00:51:09.377Z,10.70
2024-03-02T00:54:12.439Z,10.73
2024-03-02T00:57:16.318Z,10.70
2024-03-02T01:00:19.552Z,10.80
2024-03-02T01:03:22.356Z,10.75
2024-03-02T01:06:25.548Z,10.79
2024-03-02T01:09:28.162Z,10.78
2024-03-02T01:12:31.057Z,10.82
2024-03-02T01:15:34.847Z,10.73
2024-03-02T01:18:38.002Z,10.80
2024-03-02T01:21:40.736Z,10.76
2024-03-02T01:24:43.806Z,10.80
2024-03-02T01:27:50.239Z,10.79
2024-03-02T01:30:53.595Z,10.85
2024-03-02T01:33:56.407Z,10.71
2024-03-02T01:36:59.361Z,10.59
2024-03-02T01:40:02.286Z,10.72
2024-03-02T01:43:06.164Z,10.60
2024-03-02T01:46:08.850Z,10.57
2024-03-02T01:49:11.747Z,10.53
2024-03-02T01:52:14.317Z,10.56
2024-03-02T01:55:17.260Z,10.50
2024-03-02T01:58:20.092Z,10.50
2024-03-02T02:01:22.890Z,10.49
2024-03-02T02:04:29.036Z,10.54
2024-03-02T02:07:32.441Z,10.54
2024-03-02T02:10:35.331Z,10.40
2024-03-02T02:13:38.138Z,10.31
2024-03-02T02:16:41.036Z,10.35
2024-03-02T02:19:44.052Z,10.25
2024-03-02T02:23:04.276Z,10.30
2024-03-02T02:26:06.877Z,10.19
2024-03-02T02:29:09.791Z,10.20
2024-03-02T02:32:12.540Z,10.03
2024-03-02T02:35:15.517Z,9.95
2024-03-02T02:38:18.307Z,9.91
2024-03-02T02:41:21.159Z,9.96
2024-03-02T02:44:23.825Z,9.90
2024-03-02T02:47:27.487Z,9.99
2024-03-02T02:50:30.246Z,9.95
2024-03-02T02:53:33.155Z,9.94
2024-03-02T02:56:36.190Z,9.89
2024-03-02T02:59:39.052Z,9.78
2024-03-02T03:02:43.228Z,9.81
2024-03-02T03:05:46.156Z,9.82
2024-03-02T03:08:48.813Z,9.80
2024-03-02T03:11:51.688Z,9.76
2024-03-02T03:14:54.341Z,9.79
2024-03-02T03:17:57.305Z,9.77
2024-03-02T03:20:59.984Z,9.73
2024-03-02T03:24:02.920Z,9.76
2024-03-02T03:27:05.799Z,9.65
2024-03-02T03:30:08.939Z,9.69
2024-03-02T03:33:11.662Z,9.76
2024-03-02T03:36:14.585Z,9.79
2024-03-02T03:39:17.298Z,9.81
2024-03-02T03:42:20.265Z,9.81
2024-03-02T03:45:22.885Z,9.70
2024-03-02T03:48:31.740Z,9.69
2024-03-02T03:51:35.095Z,9.71
2024-03-02T03:54:39.634Z,9.75
2024-03-02T03:57:42.334Z,9.67
2024-03-02T04:00:45.256Z,9.78
2024-03-02T04:03:48.429Z,9.76
2024-03-02T04:06:51.105Z,9.77
2024-03-02T04:09:54.077Z,9.62
2024-03-02T04:12:56.787Z,9.66
2024-03-02T04:15:59.685Z,9.66
2024-03-02T04:19:02.356Z,9.62
2024-03-02T04:22:12.488Z,9.61
2024-03-02T04:25:21.260Z,9.64
2024-03-02T04:28:24.238Z,9.59
2024-03-02T04:31:26.875Z,9.62
2024-03-02T04:34:29.940Z,9.65
2024-03-02T04:37:35.671Z,9.66
2024-03-02T04:40:38.550Z,9.62
2024-03-02T04:43:41.570Z,9.52
2024-03-02T04:46:44.510Z,9.58
2024-03-02T04:49:47.448Z,9.47
2024-03-02T04:52:50.398Z,9.52
2024-03-02T04:56:29.079Z,9.51
2024-03-02T04:59:32.143Z,9.58
2024-03-02T05:02:34.710Z,9.48
2024-03-02T05:05:38.377Z,9.60
2024-03-02T05:08:41.042Z,9.63
2024-03-02T05:11:43.912Z,9.58
2024-03-02T05:14:47.365Z,9.60
2024-03-02T05:17:50.490Z,9.54
2024-03-02T05:20:53.086Z,9.42
2024-03-02T05:23:55.998Z,9.42
2024-03-02T05:26:58.620Z,9.43
2024-03-02T05:30:02.078Z,9.31
2024-03-02T05:33:05.248Z,9.36
2024-03-02T05:36:08.451Z,9.41
2024-03-02T05:39:11.582Z,9.32
2024-03-02T05:42:15.501Z,9.43
2024-03-02T05:45:18.299Z,9.44
2024-03-02T05:48:21.298Z,9.41
2024-03-02T05:51:23.946Z,9.35
2024-03-02T05:54:26.804Z,9.40
2024-03-02T05:57:50.615Z,9.41
2024-03-02T06:00:55.780Z,9.35
2024-03-02T06:04:00.114Z,9.43
2024-03-02T06:07:02.817Z,9.46
2024-03-02T06:10:10.944Z,9.44
2024-03-02T06:13:15.280Z,9.49
2024-03-02T06:16:18.385Z,9.49
2024-03-02T06:19:21.601Z,9.58
2024-03-02T06:22:26.192Z,9.55
2024-03-02T06:25:29.300Z,9.58
2024-03-02T06:28:32.154Z,9.74
2024-03-02T06:31:34.808Z,10.25
2024-03-02T06:34:37.812Z,10.20
2024-03-02T06:37:42.928Z,10.30
2024-03-02T06:40:45.875Z,10.19
2024-03-02T06:43:48.541Z,10.05
2024-03-02T06:46:51.379Z,10.09
2024-03-02T06:49:54.969Z,10.35
2024-03-02T06:52:58.429Z,10.36
2024-03-02T06:56:01.001Z,10.61
2024-03-02T06:59:03.970Z,10.95
2024-03-02T07:02:06.782Z,11.09
2024-03-02T07:05:09.886Z,10.96
2024-03-02T07:08:12.652Z,11.02
2024-03-02T07:11:15.754Z,10.80
2024-03-02T07:14:18.623Z,10.62
2024-03-02T07:17:21.551Z,11.10
2024-03-02T07:20:24.222Z,10.83
2024-03-02T07:23:28.441Z,10.68
2024-03-02T07:29:38.419Z,10.66
2024-03-02T07:32:42.700Z,10.60
2024-03-02T07:35:45.624Z,10.45
2024-03-02T07:38:51.403Z,10.55
2024-03-02T07:41:54.597Z,10.42
2024-03-02T07:44:57.216Z,10.40
2024-03-02T07:48:00.451Z,10.30
2024-03-02T07:51:03.782Z,10.42
2024-03-02T07:54:06.892Z,10.43
2024-03-02T07:57:09.799Z,10.68
2024-03-02T08:00:13.018Z,11.03
2024-03-02T08:03:16.287Z,11.01
2024-03-02T08:06:19.031Z,10.94
2024-03-02T08:09:21.993Z,10.96
2024-03-02T08:12:24.879Z,10.98
2024-03-02T08:15:27.913Z,10.81
2024-03-02T08:18:30.573Z,11.01
2024-03-02T08:21:36.336Z,10.85
2024-03-02T08:24:39.211Z,11.01
2024-03-02T08:27:42.173Z,10.84
2024-03-02T08:30:44.919Z,10.78
2024-03-02T08:33:48.054Z,10.74
2024-03-02T08:36:50.866Z,10.64
2024-03-02T08:39:53.936Z,10.55
2024-03-02T08:42:56.607Z,10.51
2024-03-02T08:45:59.649Z,10.51
2024-03-02T08:49:02.444Z,10.46
2024-03-02T08:52:05.904Z,10.71
2024-03-02T08:55:08.981Z,10.96
2024-03-02T08:58:12.066Z,10.81
2024-03-02T09:01:14.901Z,10.92
2024-03-02T09:04:18.060Z,10.79
2024-03-02T09:07:20.705Z,10.73
2024-03-02T09:10:26.299Z,10.73
2024-03-02T09:13:30.656Z,10.61
2024-03-02T09:16:33.706Z,10.70
2024-03-02T09:19:41.122Z,10.78
2024-03-02T09:22:43.976Z,10.80
2024-03-02T09:25:46.700Z,10.79
2024-03-02T09:28:49.568Z,11.14
2024-03-02T09:31:52.146Z,10.97
2024-03-02T09:34:57.032Z,10.89
2024-03-02T09:37:59.765Z,10.93
2024-03-02T09:41:03.201Z,11.00
2024-03-02T09:44:07.262Z,10.97
2024-03-02T09:47:10.179Z,11.02
2024-03-02T09:50:12.808Z,10.99
2024-03-02T09:53:16.633Z,11.00
2024-03-02T09:56:21.812Z,11.07
2024-03-02T09:59:24.706Z,11.11
2024-03-02T10:02:27.355Z,11.28
2024-03-02T10:05:30.334Z,11.30
2024-03-02T10:08:49.710Z,11.35
2024-03-02T10:11:52.593Z,11.33
2024-03-02T10:15:05.902Z,11.45
2024-03-02T10:18:13.376Z,11.37
2024-03-02T10:21:16.386Z,11.56
2024-03-02T10:24:20.704Z,11.62
2024-03-02T10:27:28.815Z,11.82
2024-03-02T10:30:31.843Z,11.95
2024-03-02T10:33:34.489Z,12.19
2024-03-02T10:36:41.464Z,12.32
2024-03-02T10:39:44.335Z,12.35
2024-03-02T10:42:48.205Z,12.63
2024-03-02T10:45:52.049Z,12.82
2024-03-02T10:48:55.037Z,13.10
2024-03-02T10:51:58.859Z,13.30
2024-03-02T10:55:01.953Z,13.48
2024-03-02T10:58:08.433Z,13.56
2024-03-02T11:01:13.812Z,13.81
2024-03-02T11:04:20.139Z,13.93
2024-03-02T11:07:24.595Z,13.92
2024-03-02T11:10:31.309Z,14.02
2024-03-02T11:13:37.603Z,14.12
2024-03-02T11:16:42.720Z,13.84
2024-03-02T11:19:46.657Z,13.98
2024-03-02T11:22:49.326Z,13.66
2024-03-02T11:25:52.250Z,13.74
2024-03-02T11:28:55.077Z,13.67
2024-03-02T11:32:04.158Z,13.71
2024-03-02T11:35:08.482Z,13.67
2024-03-02T11:38:12.153Z,13.47
2024-03-02T11:41:15.727Z,13.57
2024-03-02T11:44:19.104Z,13.64
2024-03-02T11:47:21.885Z,13.56
2024-03-02T11:50:50.148Z,13.89
2024-03-02T11:53:55.646Z,13.49
2024-03-02T11:57:01.090Z,13.55
2024-03-02T12:00:04.854Z,13.48
2024-03-02T12:03:09.360Z,13.39
2024-03-02T12:06:14.276Z,13.37
2024-03-02T12:09:16.955Z,13.24
2024-03-02T12:12:23.702Z,13.39
2024-03-02T12:15:31.979Z,13.21
2024-03-02T12:18:35.063Z,13.28
2024-03-02T12:21:38.521Z,13.42
2024-03-02T12:24:42.570Z,13.50
2024-03-02T12:27:46.728Z,13.70
2024-03-02T12:30:50.279Z,13.65
2024-03-02T12:33:53.212Z,13.91
2024-03-02T12:36:56.271Z,14.03
2024-03-02T12:39:59.017Z,14.01
2024-03-02T12:43:02.317Z,13.80
2024-03-02T12:46:05.354Z,13.91
2024-03-02T12:49:13.447Z,13.99
2024-03-02T12:52:16.170Z,13.91
2024-03-02T12:55:20.074Z,14.12
2024-03-02T12:58:23.893Z,13.98
2024-03-02T13:01:27.262Z,14.19
2024-03-02T13:04:30.531Z,14.06
2024-03-02T13:07:34.860Z,14.31
2024-03-02T13:10:38.988Z,14.34
2024-03-02T13:13:42.010Z,14.41
2024-03-02T13:16:47.924Z,14.41
2024-03-02T13:19:58.987Z,14.38
2024-03-02T13:23:02.593Z,14.43
2024-03-02T13:26:05.801Z,14.57
2024-03-02T13:29:09.244Z,14.54
2024-03-02T13:32:12.184Z,14.66
2024-03-02T13:35:14.794Z,14.96
2024-03-02T13:38:19.272Z,14.82
2024-03-02T13:41:22.354Z,14.86
2024-03-02T13:44:26.057Z,14.81
2024-03-02T13:47:28.754Z,14.53
2024-03-02T13:50:32.047Z,14.69
2024-03-02T13:53:35.921Z,14.67
2024-03-02T13:56:40.270Z,14.55
2024-03-02T13:59:44.338Z,14.82
2024-03-02T14:02:48.086Z,14.82
2024-03-02T14:05:51.397Z,14.84
2024-03-02T14:08:54.876Z,14.85
2024-03-02T14:11:58.268Z,14.64
2024-03-02T14:15:03.484Z,14.79
2024-03-02T14:18:07.279Z,14.74
2024-03-02T14:21:09.951Z,14.72
2024-03-02T14:24:12.779Z,14.69
2024-03-02T14:27:25.271Z,14.74
2024-03-02T14:30:35.802Z,14.68
2024-03-02T14:33:38.544Z,14.59
2024-03-02T14:36:44.719Z,14.49
2024-03-02T14:39:47.409Z,14.52
2024-03-02T14:42:50.383Z,14.48
2024-03-02T14:45:53.028Z,14.52
2024-03-02T14:48:56.083Z,14.44
2024-03-02T14:51:58.775Z,14.52
2024-03-02T14:55:02.095Z,14.40
2024-03-02T14:58:05.034Z,14.40
2024-03-02T15:01:08.491Z,14.36
2024-03-02T15:04:11.246Z,14.22
2024-03-02T15:07:14.279Z,14.28
2024-03-02T15:10:17.198Z,14.23
2024-03-02T15:13:20.405Z,14.17
2024-03-02T15:16:23.081Z,14.14
2024-03-02T15:19:26.076Z,14.19
2024-03-02T15:22:28.630Z,14.20
2024-03-02T15:25:31.572Z,14.06
2024-03-02T15:28:34.332Z,14.02
2024-03-02T15:31:37.322Z,13.93
2024-03-02T15:34:40.189Z,13.93
2024-03-02T15:37:43.145Z,14.04
2024-03-02T15:40:45.946Z,14.01
2024-03-02T15:43:49.961Z,13.96
2024-03-02T15:46:52.815Z,13.91
2024-03-02T15:49:55.874Z,13.85
2024-03-02T15:53:03.647Z,13.81
2024-03-02T15:56:09.509Z,13.76
2024-03-02T15:59:12.749Z,13.67
2024-03-02T16:02:15.666Z,13.60
2024-03-02T16:05:19.619Z,13.43
2024-03-02T16:08:22.369Z,13.34
2024-03-02T16:11:25.332Z,13.26
2024-03-02T16:14:27.988Z,13.21
2024-03-02T16:17:30.943Z,13.08
2024-03-02T16:20:33.871Z,12.95
2024-03-02T16:23:36.857Z,12.87
2024-03-02T16:26:40.033Z,12.79
2024-03-02T16:29:42.938Z,12.67
2024-03-02T16:32:45.553Z,12.53
2024-03-02T16:35:49.839Z,12.38
2024-03-02T16:38:52.532Z,12.30
2024-03-02T16:41:55.492Z,12.14
2024-03-02T16:44:58.333Z,12.01
2024-03-02T16:48:01.770Z,11.77
2024-03-02T16:51:05.253Z,11.60
2024-03-02T16:54:08.916Z,11.43
2024-03-02T16:57:12.557Z,11.32
2024-03-02T17:00:16.006Z,11.16
2024-03-02T17:03:19.339Z,11.08
2024-03-02T17:06:22.148Z,10.94
2024-03-02T17:09:24.809Z,10.78
2024-03-02T17:12:27.854Z,10.63
2024-03-02T17:15:30.573Z,10.56
2024-03-02T17:18:33.806Z,10.46
2024-03-02T17:21:36.465Z,10.43
2024-03-02T17:24:39.404Z,10.43
2024-03-02T17:27:42.059Z,10.40
2024-03-02T17:30:45.498Z,10.34
2024-03-02T17:33:48.569Z,10.35
2024-03-02T17:36:51.680Z,10.22
2024-03-02T17:39:55.893Z,10.08
2024-03-02T17:42:58.923Z,10.03
2024-03-02T17:46:01.777Z,10.00
2024-03-02T17:49:05.704Z,9.87
2024-03-02T17:52:08.685Z,9.80
2024-03-02T17:55:11.951Z,9.66
2024-03-02T17:58:14.730Z,9.50
2024-03-02T18:01:18.270Z,9.31
2024-03-02T18:04:23.442Z,9.21
2024-03-02T18:07:26.499Z,9.26
2024-03-02T18:10:30.231Z,9.24
2024-03-02T18:13:35.148Z,9.29
2024-03-02T18:16:38.463Z,9.10
2024-03-02T18:19:41.130Z,9.09
2024-03-02T18:22:44.303Z,9.04
2024-03-02T18:25:49.750Z,8.97
2024-03-02T18:28:52.680Z,8.86
2024-03-02T18:31:55.409Z,8.84
2024-03-02T18:34:58.278Z,8.83
2024-03-02T18:38:00.912Z,8.82
2024-03-02T18:41:03.975Z,8.87
2024-03-02T18:44:06.941Z,8.78
2024-03-02T18:47:12.243Z,8.65
2024-03-02T18:50:15.368Z,8.66
2024-03-02T18:53:18.274Z,8.66
2024-03-02T18:56:21.065Z,8.70
2024-03-02T18:59:25.280Z,8.65
2024-03-02T19:02:29.541Z,8.52
2024-03-02T19:05:33.391Z,8.60
2024-03-02T19:08:36.398Z,8.57
2024-03-02T19:11:39.946Z,8.57
2024-03-02T19:14:43.064Z,8.58
2024-03-02T19:17:46.104Z,8.51
2024-03-02T19:20:49.110Z,8.57
2024-03-02T19:23:52.064Z,8.42
2024-03-02T19:26:54.661Z,8.30
2024-03-02T19:29:57.577Z,8.29
2024-03-02T19:33:00.319Z,8.16
2024-03-02T19:36:04.633Z,8.08
2024-03-02T19:39:07.490Z,8.05
2024-03-02T19:42:10.749Z,8.07
2024-03-02T19:45:13.798Z,8.01
2024-03-02T19:48:18.450Z,8.06
2024-03-02T19:51:21.417Z,8.08
2024-03-02T19:54:24.346Z,7.88
2024-03-02T19:57:28.350Z,7.89
2024-03-02T20:00:31.610Z,7.94
2024-03-02T20:03:34.517Z,7.81
2024-03-02T20:06:39.519Z,7.83
2024-03-02T20:09:42.826Z,7.97
2024-03-02T20:12:45.488Z,7.96
2024-03-02T20:15:48.631Z,8.02
2024-03-02T20:18:51.416Z,8.12
2024-03-02T20:21:54.381Z,8.16
2024-03-02T20:24:56.984Z,8.20
2024-03-02T20:28:00.575Z,8.18
2024-03-02T20:31:03.390Z,8.15
2024-03-02T20:34:06.328Z,8.19
2024-03-02T20:37:09.212Z,8.24
2024-03-02T20:40:14.453Z,8.27
2024-03-02T20:43:17.106Z,8.41
2024-03-02T20:46:20.314Z,8.24
2024-03-02T20:49:24.848Z,8.24
2024-03-02T20:52:27.853Z,8.09
2024-03-02T20:55:31.190Z,7.95
2024-03-02T20:58:34.450Z,7.96
2024-03-02T21:01:38.291Z,7.93
2024-03-02T21:04:43.265Z,7.97
2024-03-02T21:07:45.962Z,7.83
2024-03-02T21:10:50.059Z,7.72
2024-03-02T21:13:53.155Z,7.68
2024-03-02T21:16:56.247Z,7.67
2024-03-02T21:19:58.963Z,7.67
2024-03-02T21:23:02.152Z,7.68
2024-03-02T21:26:05.031Z,7.62
2024-03-02T21:29:09.121Z,7.49
2024-03-02T21:32:11.718Z,7.42
2024-03-02T21:35:16.102Z,7.27
2024-03-02T21:38:18.759Z,7.21
2024-03-02T21:41:21.854Z,7.27
2024-03-02T21:44:24.790Z,7.22
2024-03-02T21:47:27.831Z,7.17
2024-03-02T21:50:31.750Z,7.24
2024-03-02T21:53:34.703Z,7.10
2024-03-02T21:56:37.829Z,7.06
2024-03-02T21:59:40.671Z,7.21
2024-03-02T22:02:43.285Z,7.19
2024-03-02T22:05:46.216Z,7.16
2024-03-02T22:08:48.861Z,7.14
2024-03-02T22:11:51.758Z,7.25
2024-03-02T22:14:54.661Z,7.08
2024-03-02T22:17:58.239Z,7.11
2024-03-02T22:21:00.905Z,6.99
2024-03-02T22:24:03.986Z,7.05
2024-03-02T22:27:06.620Z,6.86
2024-03-02T22:30:09.888Z,7.20
2024-03-02T22:33:12.961Z,7.12
2024-03-02T22:36:15.893Z,6.97
2024-03-02T22:39:18.546Z,6.92
2024-03-02T22:42:21.405Z,6.85
2024-03-02T22:45:23.976Z,6.72
2024-03-02T22:48:26.904Z,6.70
2024-03-02T22:51:29.447Z,6.63
2024-03-02T22:54:32.313Z,6.47
2024-03-02T22:57:36.472Z,6.56
2024-03-02T23:00:49.242Z,6.58
2024-03-02T23:03:52.357Z,6.67
2024-03-02T23:06:55.290Z,6.70
2024-03-02T23:09:57.966Z,6.79
2024-03-02T23:13:00.907Z,7.00
2024-03-02T23:16:04.272Z,7.04
2024-03-02T23:19:07.368Z,7.18
2024-03-02T23:22:11.490Z,7.06
2024-03-02T23:25:15.697Z,7.00
2024-03-02T23:28:18.370Z,7.01
2024-03-02T23:31:21.377Z,7.08
2024-03-02T23:34:23.988Z,7.20
2024-03-02T23:37:28.992Z,7.41
2024-03-02T23:40:51.563Z,7.44
2024-03-02T23:43:58.676Z,7.29
2024-03-02T23:47:01.569Z,7.30
2024-03-02T23:50:04.819Z,7.31
2024-03-02T23:53:07.402Z,7.36
2024-03-02T23:56:12.899Z,7.46
2024-03-02T23:59:15.432Z,7.48
